sensor_id;sensor_type;location;lat;lon;timestamp;P1;durP1;ratioP1;P2;durP2;ratioP2
14892;SDS011;7538;53.626;9.906;2022-07-21T00:00:24;16.70;;;13.98;;
14892;SDS011;7538;53.626;9.906;2022-07-21T00:02:52;16.00;;;13.85;;
14892;SDS011;7538;53.626;9.906;2022-07-21T00:05:19;16.73;;;14.52;;
14892;SDS011;7538;53.626;9.906;2022-07-21T00:07:47;17.25;;;14.25;;
14892;SDS011;7538;53.626;9.906;2022-07-21T00:10:14;16.60;;;14.90;;
14892;SDS011;7538;53.626;9.906;2022-07-21T00:12:42;15.50;;;13.70;;
14892;SDS011;7538;53.626;9.906;2022-07-21T00:15:11;14.40;;;12.90;;
14892;SDS011;7538;53.626;9.906;2022-07-21T00:17:39;16.77;;;13.18;;
14892;SDS011;7538;53.626;9.906;2022-07-21T00:20:07;16.00;;;13.75;;
14892;SDS011;7538;53.626;9.906;2022-07-21T00:22:36;14.65;;;13.15;;
14892;SDS011;7538;53.626;9.906;2022-07-21T00:25:04;18.02;;;13.45;;
14892;SDS011;7538;53.626;9.906;2022-07-21T00:27:33;15.48;;;13.27;;
14892;SDS011;7538;53.626;9.906;2022-07-21T00:30:00;14.73;;;12.98;;
14892;SDS011;7538;53.626;9.906;2022-07-21T00:32:29;16.73;;;13.57;;
14892;SDS011;7538;53.626;9.906;2022-07-21T00:34:56;15.52;;;12.45;;
14892;SDS011;7538;53.626;9.906;2022-07-21T00:37:23;15.32;;;13.60;;
14892;SDS011;7538;53.626;9.906;2022-07-21T00:39:52;15.82;;;13.23;;
14892;SDS011;7538;53.626;9.906;2022-07-21T00:42:20;18.23;;;13.93;;
14892;SDS011;7538;53.626;9.906;2022-07-21T00:44:47;16.63;;;13.10;;
14892;SDS011;7538;53.626;9.906;2022-07-21T00:47:15;16.80;;;13.65;;
14892;SDS011;7538;53.626;9.906;2022-07-21T00:49:45;16.58;;;13.45;;
14892;SDS011;7538;53.626;9.906;2022-07-21T00:52:12;15.20;;;13.38;;
14892;SDS011;7538;53.626;9.906;2022-07-21T00:54:40;18.42;;;13.63;;
14892;SDS011;7538;53.626;9.906;2022-07-21T00:57:07;15.65;;;13.93;;
14892;SDS011;7538;53.626;9.906;2022-07-21T00:59:35;18.13;;;13.15;;
14892;SDS011;7538;53.626;9.906;2022-07-21T01:02:02;15.07;;;13.32;;
14892;SDS011;7538;53.626;9.906;2022-07-21T01:04:29;17.58;;;14.48;;
14892;SDS011;7538;53.626;9.906;2022-07-21T01:06:57;17.75;;;13.63;;
14892;SDS011;7538;53.626;9.906;2022-07-21T01:09:27;19.08;;;13.82;;
14892;SDS011;7538;53.626;9.906;2022-07-21T01:11:54;15.95;;;13.45;;
14892;SDS011;7538;53.626;9.906;2022-07-21T01:14:21;18.88;;;14.50;;
14892;SDS011;7538;53.626;9.906;2022-07-21T01:16:48;18.52;;;14.48;;
14892;SDS011;7538;53.626;9.906;2022-07-21T01:19:15;17.05;;;13.85;;
14892;SDS011;7538;53.626;9.906;2022-07-21T01:21:45;20.45;;;13.73;;
14892;SDS011;7538;53.626;9.906;2022-07-21T01:24:13;18.60;;;14.50;;
14892;SDS011;7538;53.626;9.906;2022-07-21T01:26:40;19.73;;;14.20;;
14892;SDS011;7538;53.626;9.906;2022-07-21T01:29:08;16.42;;;13.85;;
14892;SDS011;7538;53.626;9.906;2022-07-21T01:31:36;19.17;;;14.75;;
14892;SDS011;7538;53.626;9.906;2022-07-21T01:34:04;19.08;;;13.82;;
14892;SDS011;7538;53.626;9.906;2022-07-21T01:36:31;17.65;;;13.77;;
14892;SDS011;7538;53.626;9.906;2022-07-21T01:39:00;19.65;;;14.32;;
14892;SDS011;7538;53.626;9.906;2022-07-21T01:41:44;16.13;;;13.80;;
14892;SDS011;7538;53.626;9.906;2022-07-21T01:44:11;20.88;;;13.90;;
14892;SDS011;7538;53.626;9.906;2022-07-21T01:46:39;17.50;;;14.10;;
14892;SDS011;7538;53.626;9.906;2022-07-21T01:49:09;18.67;;;14.50;;
14892;SDS011;7538;53.626;9.906;2022-07-21T01:51:36;18.45;;;14.07;;
14892;SDS011;7538;53.626;9.906;2022-07-21T01:54:05;19.02;;;13.77;;
14892;SDS011;7538;53.626;9.906;2022-07-21T01:56:33;18.42;;;14.05;;
14892;SDS011;7538;53.626;9.906;2022-07-21T01:59:01;20.08;;;14.70;;
14892;SDS011;7538;53.626;9.906;2022-07-21T02:01:29;19.70;;;14.98;;
14892;SDS011;7538;53.626;9.906;2022-07-21T02:03:58;19.05;;;15.02;;
14892;SDS011;7538;53.626;9.906;2022-07-21T02:06:26;20.13;;;14.77;;
14892;SDS011;7538;53.626;9.906;2022-07-21T02:08:54;19.05;;;14.60;;
14892;SDS011;7538;53.626;9.906;2022-07-21T02:11:22;18.23;;;14.07;;
14892;SDS011;7538;53.626;9.906;2022-07-21T02:13:49;17.83;;;14.50;;
14892;SDS011;7538;53.626;9.906;2022-07-21T02:16:16;17.35;;;13.95;;
14892;SDS011;7538;53.626;9.906;2022-07-21T02:18:44;16.67;;;13.95;;
14892;SDS011;7538;53.626;9.906;2022-07-21T02:21:11;20.77;;;14.68;;
14892;SDS011;7538;53.626;9.906;2022-07-21T02:23:38;21.08;;;14.90;;
14892;SDS011;7538;53.626;9.906;2022-07-21T02:26:05;20.67;;;14.60;;
14892;SDS011;7538;53.626;9.906;2022-07-21T02:28:33;20.27;;;15.25;;
14892;SDS011;7538;53.626;9.906;2022-07-21T02:31:00;20.85;;;14.52;;
14892;SDS011;7538;53.626;9.906;2022-07-21T02:33:27;18.55;;;14.75;;
14892;SDS011;7538;53.626;9.906;2022-07-21T02:35:55;19.50;;;15.45;;
14892;SDS011;7538;53.626;9.906;2022-07-21T02:38:22;22.35;;;16.75;;
14892;SDS011;7538;53.626;9.906;2022-07-21T02:40:49;23.08;;;17.45;;
14892;SDS011;7538;53.626;9.906;2022-07-21T02:43:16;24.95;;;16.77;;
14892;SDS011;7538;53.626;9.906;2022-07-21T02:45:44;22.08;;;17.20;;
14892;SDS011;7538;53.626;9.906;2022-07-21T02:48:11;21.17;;;17.00;;
14892;SDS011;7538;53.626;9.906;2022-07-21T02:50:39;26.10;;;18.02;;
14892;SDS011;7538;53.626;9.906;2022-07-21T02:53:08;23.75;;;18.40;;
14892;SDS011;7538;53.626;9.906;2022-07-21T02:55:36;26.80;;;17.67;;
14892;SDS011;7538;53.626;9.906;2022-07-21T02:58:05;20.98;;;16.95;;
14892;SDS011;7538;53.626;9.906;2022-07-21T03:00:33;24.17;;;18.15;;
14892;SDS011;7538;53.626;9.906;2022-07-21T03:03:02;21.45;;;17.42;;
14892;SDS011;7538;53.626;9.906;2022-07-21T03:05:30;28.13;;;17.27;;
14892;SDS011;7538;53.626;9.906;2022-07-21T03:07:57;20.63;;;16.40;;
14892;SDS011;7538;53.626;9.906;2022-07-21T03:10:24;28.83;;;17.80;;
14892;SDS011;7538;53.626;9.906;2022-07-21T03:12:51;24.25;;;16.00;;
14892;SDS011;7538;53.626;9.906;2022-07-21T03:15:18;22.83;;;16.38;;
14892;SDS011;7538;53.626;9.906;2022-07-21T03:17:45;20.48;;;15.13;;
14892;SDS011;7538;53.626;9.906;2022-07-21T03:20:14;21.73;;;14.93;;
14892;SDS011;7538;53.626;9.906;2022-07-21T03:22:40;18.65;;;14.93;;
14892;SDS011;7538;53.626;9.906;2022-07-21T03:25:08;20.95;;;15.55;;
14892;SDS011;7538;53.626;9.906;2022-07-21T03:27:35;19.67;;;15.05;;
14892;SDS011;7538;53.626;9.906;2022-07-21T03:30:03;17.25;;;13.73;;
14892;SDS011;7538;53.626;9.906;2022-07-21T03:32:31;17.25;;;13.77;;
14892;SDS011;7538;53.626;9.906;2022-07-21T03:34:58;18.30;;;14.18;;
14892;SDS011;7538;53.626;9.906;2022-07-21T03:37:26;20.27;;;13.77;;
14892;SDS011;7538;53.626;9.906;2022-07-21T03:39:53;17.15;;;12.88;;
14892;SDS011;7538;53.626;9.906;2022-07-21T03:42:20;16.42;;;13.07;;
14892;SDS011;7538;53.626;9.906;2022-07-21T03:44:47;16.73;;;11.98;;
14892;SDS011;7538;53.626;9.906;2022-07-21T03:47:14;20.25;;;11.57;;
14892;SDS011;7538;53.626;9.906;2022-07-21T03:49:41;18.08;;;11.55;;
14892;SDS011;7538;53.626;9.906;2022-07-21T03:52:09;15.25;;;11.68;;
14892;SDS011;7538;53.626;9.906;2022-07-21T03:54:37;17.48;;;11.23;;
14892;SDS011;7538;53.626;9.906;2022-07-21T03:57:04;14.52;;;9.90;;
14892;SDS011;7538;53.626;9.906;2022-07-21T03:59:31;15.82;;;10.95;;
14892;SDS011;7538;53.626;9.906;2022-07-21T04:01:58;13.18;;;9.88;;
14892;SDS011;7538;53.626;9.906;2022-07-21T04:04:25;15.38;;;10.68;;
14892;SDS011;7538;53.626;9.906;2022-07-21T04:06:52;15.55;;;9.75;;
14892;SDS011;7538;53.626;9.906;2022-07-21T04:09:20;18.77;;;9.60;;
14892;SDS011;7538;53.626;9.906;2022-07-21T04:11:48;14.20;;;9.48;;
14892;SDS011;7538;53.626;9.906;2022-07-21T04:14:15;18.80;;;10.15;;
14892;SDS011;7538;53.626;9.906;2022-07-21T04:16:42;16.02;;;9.68;;
14892;SDS011;7538;53.626;9.906;2022-07-21T04:19:09;17.52;;;9.13;;
14892;SDS011;7538;53.626;9.906;2022-07-21T04:21:36;14.82;;;8.77;;
14892;SDS011;7538;53.626;9.906;2022-07-21T04:24:03;15.75;;;9.60;;
14892;SDS011;7538;53.626;9.906;2022-07-21T04:26:30;13.25;;;9.27;;
14892;SDS011;7538;53.626;9.906;2022-07-21T04:28:59;16.25;;;9.50;;
14892;SDS011;7538;53.626;9.906;2022-07-21T04:31:26;16.88;;;9.05;;
14892;SDS011;7538;53.626;9.906;2022-07-21T04:33:52;15.23;;;8.75;;
14892;SDS011;7538;53.626;9.906;2022-07-21T04:36:20;14.55;;;8.48;;
14892;SDS011;7538;53.626;9.906;2022-07-21T04:38:47;13.65;;;8.20;;
14892;SDS011;7538;53.626;9.906;2022-07-21T04:41:14;15.00;;;8.30;;
14892;SDS011;7538;53.626;9.906;2022-07-21T04:43:41;15.13;;;7.40;;
14892;SDS011;7538;53.626;9.906;2022-07-21T04:46:09;17.05;;;8.68;;
14892;SDS011;7538;53.626;9.906;2022-07-21T04:48:36;16.58;;;8.63;;
14892;SDS011;7538;53.626;9.906;2022-07-21T04:51:03;10.98;;;7.82;;
14892;SDS011;7538;53.626;9.906;2022-07-21T04:53:31;13.70;;;7.82;;
14892;SDS011;7538;53.626;9.906;2022-07-21T04:55:57;12.38;;;7.45;;
14892;SDS011;7538;53.626;9.906;2022-07-21T04:58:25;16.08;;;8.27;;
14892;SDS011;7538;53.626;9.906;2022-07-21T05:00:52;16.75;;;7.43;;
14892;SDS011;7538;53.626;9.906;2022-07-21T05:03:20;13.27;;;7.55;;
14892;SDS011;7538;53.626;9.906;2022-07-21T05:05:47;18.48;;;8.32;;
14892;SDS011;7538;53.626;9.906;2022-07-21T05:08:14;14.38;;;7.85;;
14892;SDS011;7538;53.626;9.906;2022-07-21T05:10:40;13.35;;;8.50;;
14892;SDS011;7538;53.626;9.906;2022-07-21T05:13:08;17.05;;;8.70;;
14892;SDS011;7538;53.626;9.906;2022-07-21T05:15:34;13.25;;;7.72;;
14892;SDS011;7538;53.626;9.906;2022-07-21T05:18:02;16.52;;;8.48;;
14892;SDS011;7538;53.626;9.906;2022-07-21T05:20:30;13.13;;;7.97;;
14892;SDS011;7538;53.626;9.906;2022-07-21T05:22:57;14.32;;;8.20;;
14892;SDS011;7538;53.626;9.906;2022-07-21T05:25:24;15.98;;;8.02;;
14892;SDS011;7538;53.626;9.906;2022-07-21T05:27:51;12.52;;;7.20;;
14892;SDS011;7538;53.626;9.906;2022-07-21T05:30:18;19.17;;;8.73;;
14892;SDS011;7538;53.626;9.906;2022-07-21T05:32:45;13.02;;;7.43;;
14892;SDS011;7538;53.626;9.906;2022-07-21T05:35:12;9.77;;;6.88;;
14892;SDS011;7538;53.626;9.906;2022-07-21T05:37:41;13.27;;;7.68;;
14892;SDS011;7538;53.626;9.906;2022-07-21T05:40:09;14.35;;;8.00;;
14892;SDS011;7538;53.626;9.906;2022-07-21T05:42:36;18.55;;;8.32;;
14892;SDS011;7538;53.626;9.906;2022-07-21T05:45:05;18.48;;;8.65;;
14892;SDS011;7538;53.626;9.906;2022-07-21T05:47:32;12.80;;;8.77;;
14892;SDS011;7538;53.626;9.906;2022-07-21T05:50:00;12.68;;;8.70;;
14892;SDS011;7538;53.626;9.906;2022-07-21T05:52:27;15.43;;;8.45;;
14892;SDS011;7538;53.626;9.906;2022-07-21T05:54:55;12.20;;;7.13;;
14892;SDS011;7538;53.626;9.906;2022-07-21T05:57:22;12.40;;;7.50;;
14892;SDS011;7538;53.626;9.906;2022-07-21T05:59:49;13.25;;;7.15;;
14892;SDS011;7538;53.626;9.906;2022-07-21T06:02:15;11.23;;;7.03;;
14892;SDS011;7538;53.626;9.906;2022-07-21T06:04:43;10.40;;;6.90;;
14892;SDS011;7538;53.626;9.906;2022-07-21T06:07:10;10.57;;;7.20;;
14892;SDS011;7538;53.626;9.906;2022-07-21T06:09:37;10.77;;;6.78;;
14892;SDS011;7538;53.626;9.906;2022-07-21T06:12:06;13.23;;;7.97;;
14892;SDS011;7538;53.626;9.906;2022-07-21T06:14:33;11.60;;;7.75;;
14892;SDS011;7538;53.626;9.906;2022-07-21T06:17:00;13.88;;;8.05;;
14892;SDS011;7538;53.626;9.906;2022-07-21T06:19:27;12.43;;;8.00;;
14892;SDS011;7538;53.626;9.906;2022-07-21T06:21:54;12.13;;;7.22;;
14892;SDS011;7538;53.626;9.906;2022-07-21T06:24:21;9.63;;;6.60;;
14892;SDS011;7538;53.626;9.906;2022-07-21T06:26:48;8.90;;;7.15;;
14892;SDS011;7538;53.626;9.906;2022-07-21T06:29:16;10.93;;;7.22;;
14892;SDS011;7538;53.626;9.906;2022-07-21T06:31:43;15.20;;;8.40;;
14892;SDS011;7538;53.626;9.906;2022-07-21T06:34:10;10.60;;;7.60;;
14892;SDS011;7538;53.626;9.906;2022-07-21T06:36:37;12.25;;;7.47;;
14892;SDS011;7538;53.626;9.906;2022-07-21T06:39:04;12.98;;;9.07;;
14892;SDS011;7538;53.626;9.906;2022-07-21T06:41:31;14.65;;;8.07;;
14892;SDS011;7538;53.626;9.906;2022-07-21T06:43:58;11.60;;;8.43;;
14892;SDS011;7538;53.626;9.906;2022-07-21T06:46:28;13.20;;;8.60;;
14892;SDS011;7538;53.626;9.906;2022-07-21T06:48:55;16.45;;;9.13;;
14892;SDS011;7538;53.626;9.906;2022-07-21T06:51:22;14.98;;;8.55;;
14892;SDS011;7538;53.626;9.906;2022-07-21T06:53:49;16.50;;;9.63;;
14892;SDS011;7538;53.626;9.906;2022-07-21T06:56:16;14.25;;;9.25;;
14892;SDS011;7538;53.626;9.906;2022-07-21T06:58:44;14.27;;;9.02;;
14892;SDS011;7538;53.626;9.906;2022-07-21T07:01:11;11.88;;;8.82;;
14892;SDS011;7538;53.626;9.906;2022-07-21T07:03:40;14.82;;;10.48;;
14892;SDS011;7538;53.626;9.906;2022-07-21T07:06:07;16.55;;;10.10;;
14892;SDS011;7538;53.626;9.906;2022-07-21T07:08:34;15.57;;;9.20;;
14892;SDS011;7538;53.626;9.906;2022-07-21T07:11:02;14.70;;;9.77;;
14892;SDS011;7538;53.626;9.906;2022-07-21T07:13:29;14.30;;;9.68;;
14892;SDS011;7538;53.626;9.906;2022-07-21T07:15:56;15.63;;;11.05;;
14892;SDS011;7538;53.626;9.906;2022-07-21T07:18:23;16.92;;;10.70;;
14892;SDS011;7538;53.626;9.906;2022-07-21T07:20:51;13.95;;;9.82;;
14892;SDS011;7538;53.626;9.906;2022-07-21T07:23:18;19.13;;;10.10;;
14892;SDS011;7538;53.626;9.906;2022-07-21T07:25:45;15.20;;;9.55;;
14892;SDS011;7538;53.626;9.906;2022-07-21T07:28:12;15.82;;;10.18;;
14892;SDS011;7538;53.626;9.906;2022-07-21T07:30:40;11.55;;;10.13;;
14892;SDS011;7538;53.626;9.906;2022-07-21T07:33:07;17.23;;;11.50;;
14892;SDS011;7538;53.626;9.906;2022-07-21T07:35:34;12.80;;;10.50;;
14892;SDS011;7538;53.626;9.906;2022-07-21T07:38:02;15.55;;;10.43;;
14892;SDS011;7538;53.626;9.906;2022-07-21T07:40:29;17.63;;;11.82;;
14892;SDS011;7538;53.626;9.906;2022-07-21T07:42:56;18.75;;;12.35;;
14892;SDS011;7538;53.626;9.906;2022-07-21T07:45:23;15.18;;;11.05;;
14892;SDS011;7538;53.626;9.906;2022-07-21T07:47:50;16.77;;;13.18;;
14892;SDS011;7538;53.626;9.906;2022-07-21T07:50:17;16.65;;;11.82;;
14892;SDS011;7538;53.626;9.906;2022-07-21T07:52:45;15.48;;;11.68;;
14892;SDS011;7538;53.626;9.906;2022-07-21T07:55:13;17.25;;;11.85;;
14892;SDS011;7538;53.626;9.906;2022-07-21T07:57:41;22.92;;;13.27;;
14892;SDS011;7538;53.626;9.906;2022-07-21T08:00:09;25.75;;;14.38;;
14892;SDS011;7538;53.626;9.906;2022-07-21T08:02:39;25.15;;;14.18;;
14892;SDS011;7538;53.626;9.906;2022-07-21T08:05:06;23.90;;;13.60;;
14892;SDS011;7538;53.626;9.906;2022-07-21T08:07:34;21.75;;;14.88;;
14892;SDS011;7538;53.626;9.906;2022-07-21T08:10:03;18.63;;;15.23;;
14892;SDS011;7538;53.626;9.906;2022-07-21T08:12:32;26.35;;;17.40;;
14892;SDS011;7538;53.626;9.906;2022-07-21T08:14:59;22.58;;;17.85;;
14892;SDS011;7538;53.626;9.906;2022-07-21T08:17:26;17.33;;;14.82;;
14892;SDS011;7538;53.626;9.906;2022-07-21T08:19:53;16.15;;;14.43;;
14892;SDS011;7538;53.626;9.906;2022-07-21T08:22:20;17.70;;;14.35;;
14892;SDS011;7538;53.626;9.906;2022-07-21T08:24:47;18.88;;;15.68;;
14892;SDS011;7538;53.626;9.906;2022-07-21T08:27:14;16.55;;;14.80;;
14892;SDS011;7538;53.626;9.906;2022-07-21T08:29:43;23.23;;;18.50;;
14892;SDS011;7538;53.626;9.906;2022-07-21T08:32:11;23.17;;;18.58;;
14892;SDS011;7538;53.626;9.906;2022-07-21T08:34:38;22.70;;;18.60;;
14892;SDS011;7538;53.626;9.906;2022-07-21T08:37:05;22.00;;;17.48;;
14892;SDS011;7538;53.626;9.906;2022-07-21T08:39:32;19.80;;;16.05;;
14892;SDS011;7538;53.626;9.906;2022-07-21T08:41:59;17.83;;;15.98;;
14892;SDS011;7538;53.626;9.906;2022-07-21T08:44:26;21.15;;;16.25;;
14892;SDS011;7538;53.626;9.906;2022-07-21T08:46:55;19.52;;;15.98;;
14892;SDS011;7538;53.626;9.906;2022-07-21T08:49:23;19.60;;;16.58;;
14892;SDS011;7538;53.626;9.906;2022-07-21T08:51:51;18.45;;;16.33;;
14892;SDS011;7538;53.626;9.906;2022-07-21T08:54:19;21.58;;;17.77;;
14892;SDS011;7538;53.626;9.906;2022-07-21T08:56:46;19.90;;;14.55;;
14892;SDS011;7538;53.626;9.906;2022-07-21T08:59:13;22.33;;;18.55;;
14892;SDS011;7538;53.626;9.906;2022-07-21T09:01:41;20.42;;;17.55;;
14892;SDS011;7538;53.626;9.906;2022-07-21T09:04:25;19.73;;;16.10;;
14892;SDS011;7538;53.626;9.906;2022-07-21T09:06:54;23.52;;;20.05;;
14892;SDS011;7538;53.626;9.906;2022-07-21T09:09:23;19.38;;;17.33;;
14892;SDS011;7538;53.626;9.906;2022-07-21T09:11:50;22.98;;;19.02;;
14892;SDS011;7538;53.626;9.906;2022-07-21T09:14:19;17.55;;;15.25;;
14892;SDS011;7538;53.626;9.906;2022-07-21T09:16:47;21.13;;;17.23;;
14892;SDS011;7538;53.626;9.906;2022-07-21T09:19:16;21.30;;;17.20;;
14892;SDS011;7538;53.626;9.906;2022-07-21T09:21:47;18.52;;;16.30;;
14892;SDS011;7538;53.626;9.906;2022-07-21T09:24:15;19.15;;;15.20;;
14892;SDS011;7538;53.626;9.906;2022-07-21T09:27:02;16.95;;;14.35;;
14892;SDS011;7538;53.626;9.906;2022-07-21T09:29:34;18.88;;;14.20;;
14892;SDS011;7538;53.626;9.906;2022-07-21T09:32:16;17.42;;;15.18;;
14892;SDS011;7538;53.626;9.906;2022-07-21T09:34:45;12.95;;;11.63;;
14892;SDS011;7538;53.626;9.906;2022-07-21T09:37:15;18.27;;;16.38;;
14892;SDS011;7538;53.626;9.906;2022-07-21T09:39:44;16.40;;;14.43;;
14892;SDS011;7538;53.626;9.906;2022-07-21T09:42:12;18.08;;;15.90;;
14892;SDS011;7538;53.626;9.906;2022-07-21T09:44:41;15.70;;;14.20;;
14892;SDS011;7538;53.626;9.906;2022-07-21T09:47:10;15.60;;;14.02;;
14892;SDS011;7538;53.626;9.906;2022-07-21T09:49:38;14.68;;;13.18;;
14892;SDS011;7538;53.626;9.906;2022-07-21T09:52:18;16.55;;;14.20;;
14892;SDS011;7538;53.626;9.906;2022-07-21T09:54:55;15.35;;;12.77;;
14892;SDS011;7538;53.626;9.906;2022-07-21T09:57:23;15.57;;;12.13;;
14892;SDS011;7538;53.626;9.906;2022-07-21T09:59:50;16.20;;;14.40;;
14892;SDS011;7538;53.626;9.906;2022-07-21T10:02:18;14.32;;;12.82;;
14892;SDS011;7538;53.626;9.906;2022-07-21T10:04:48;15.23;;;13.52;;
14892;SDS011;7538;53.626;9.906;2022-07-21T10:07:20;14.98;;;13.27;;
14892;SDS011;7538;53.626;9.906;2022-07-21T10:09:52;15.23;;;13.63;;
14892;SDS011;7538;53.626;9.906;2022-07-21T10:12:20;16.23;;;14.73;;
14892;SDS011;7538;53.626;9.906;2022-07-21T10:14:47;17.75;;;15.85;;
14892;SDS011;7538;53.626;9.906;2022-07-21T10:17:14;15.85;;;14.25;;
14892;SDS011;7538;53.626;9.906;2022-07-21T10:19:44;13.38;;;12.05;;
14892;SDS011;7538;53.626;9.906;2022-07-21T10:22:29;13.02;;;11.65;;
14892;SDS011;7538;53.626;9.906;2022-07-21T10:25:06;12.15;;;10.88;;
14892;SDS011;7538;53.626;9.906;2022-07-21T10:27:33;12.60;;;11.13;;
14892;SDS011;7538;53.626;9.906;2022-07-21T10:30:01;11.68;;;10.40;;
14892;SDS011;7538;53.626;9.906;2022-07-21T10:32:30;11.88;;;9.40;;
14892;SDS011;7538;53.626;9.906;2022-07-21T10:34:59;12.20;;;10.90;;
14892;SDS011;7538;53.626;9.906;2022-07-21T10:37:46;10.35;;;9.35;;
14892;SDS011;7538;53.626;9.906;2022-07-21T10:46:03;11.98;;;10.77;;
14892;SDS011;7538;53.626;9.906;2022-07-21T10:49:04;12.07;;;10.85;;
14892;SDS011;7538;53.626;9.906;2022-07-21T10:51:33;11.80;;;10.70;;
14892;SDS011;7538;53.626;9.906;2022-07-21T11:02:43;13.00;;;11.77;;
14892;SDS011;7538;53.626;9.906;2022-07-21T11:05:12;10.95;;;9.93;;
14892;SDS011;7538;53.626;9.906;2022-07-21T11:10:38;10.65;;;9.55;;
14892;SDS011;7538;53.626;9.906;2022-07-21T11:13:07;10.65;;;9.77;;
14892;SDS011;7538;53.626;9.906;2022-07-21T11:15:47;9.82;;;8.90;;
14892;SDS011;7538;53.626;9.906;2022-07-21T11:18:22;9.20;;;8.50;;
14892;SDS011;7538;53.626;9.906;2022-07-21T11:21:06;8.35;;;7.53;;
14892;SDS011;7538;53.626;9.906;2022-07-21T11:23:39;8.85;;;7.97;;
14892;SDS011;7538;53.626;9.906;2022-07-21T11:26:09;7.50;;;6.75;;
14892;SDS011;7538;53.626;9.906;2022-07-21T11:28:37;6.82;;;6.22;;
14892;SDS011;7538;53.626;9.906;2022-07-21T11:31:05;6.95;;;6.25;;
14892;SDS011;7538;53.626;9.906;2022-07-21T11:33:37;6.68;;;6.07;;
14892;SDS011;7538;53.626;9.906;2022-07-21T11:36:04;6.18;;;5.78;;
14892;SDS011;7538;53.626;9.906;2022-07-21T11:38:31;6.47;;;5.43;;
14892;SDS011;7538;53.626;9.906;2022-07-21T11:41:19;5.38;;;4.97;;
14892;SDS011;7538;53.626;9.906;2022-07-21T11:43:46;5.38;;;4.88;;
14892;SDS011;7538;53.626;9.906;2022-07-21T11:46:13;5.10;;;4.70;;
14892;SDS011;7538;53.626;9.906;2022-07-21T11:48:40;5.40;;;5.00;;
14892;SDS011;7538;53.626;9.906;2022-07-21T11:51:07;6.03;;;5.10;;
14892;SDS011;7538;53.626;9.906;2022-07-21T11:53:34;4.78;;;4.32;;
14892;SDS011;7538;53.626;9.906;2022-07-21T11:56:01;5.15;;;4.65;;
14892;SDS011;7538;53.626;9.906;2022-07-21T11:58:39;4.97;;;4.47;;
14892;SDS011;7538;53.626;9.906;2022-07-21T12:01:07;5.00;;;4.60;;
14892;SDS011;7538;53.626;9.906;2022-07-21T12:03:34;4.15;;;3.85;;
14892;SDS011;7538;53.626;9.906;2022-07-21T12:06:13;4.50;;;4.10;;
14892;SDS011;7538;53.626;9.906;2022-07-21T12:08:40;4.25;;;3.90;;
14892;SDS011;7538;53.626;9.906;2022-07-21T12:11:08;4.10;;;3.80;;
14892;SDS011;7538;53.626;9.906;2022-07-21T12:13:52;4.50;;;4.20;;
14892;SDS011;7538;53.626;9.906;2022-07-21T12:16:22;4.47;;;4.05;;
14892;SDS011;7538;53.626;9.906;2022-07-21T12:18:49;4.63;;;4.32;;
14892;SDS011;7538;53.626;9.906;2022-07-21T12:21:42;5.18;;;4.50;;
14892;SDS011;7538;53.626;9.906;2022-07-21T12:24:10;4.88;;;4.38;;
14892;SDS011;7538;53.626;9.906;2022-07-21T12:26:37;4.57;;;4.18;;
14892;SDS011;7538;53.626;9.906;2022-07-21T12:29:06;4.88;;;4.47;;
14892;SDS011;7538;53.626;9.906;2022-07-21T12:31:33;4.82;;;4.22;;
14892;SDS011;7538;53.626;9.906;2022-07-21T12:34:10;4.43;;;4.00;;
14892;SDS011;7538;53.626;9.906;2022-07-21T12:36:38;5.65;;;5.15;;
14892;SDS011;7538;53.626;9.906;2022-07-21T12:39:19;5.82;;;5.35;;
14892;SDS011;7538;53.626;9.906;2022-07-21T12:42:06;5.47;;;4.97;;
14892;SDS011;7538;53.626;9.906;2022-07-21T12:44:36;5.40;;;4.88;;
14892;SDS011;7538;53.626;9.906;2022-07-21T12:47:13;5.20;;;4.80;;
14892;SDS011;7538;53.626;9.906;2022-07-21T12:49:54;5.20;;;4.80;;
14892;SDS011;7538;53.626;9.906;2022-07-21T12:52:23;5.35;;;4.85;;
14892;SDS011;7538;53.626;9.906;2022-07-21T12:54:50;5.45;;;4.95;;
14892;SDS011;7538;53.626;9.906;2022-07-21T12:57:17;4.57;;;4.28;;
14892;SDS011;7538;53.626;9.906;2022-07-21T12:59:46;5.10;;;4.60;;
14892;SDS011;7538;53.626;9.906;2022-07-21T13:02:13;4.70;;;4.03;;
14892;SDS011;7538;53.626;9.906;2022-07-21T13:04:39;4.38;;;3.97;;
14892;SDS011;7538;53.626;9.906;2022-07-21T13:07:06;4.05;;;3.75;;
14892;SDS011;7538;53.626;9.906;2022-07-21T13:09:33;4.10;;;3.63;;
14892;SDS011;7538;53.626;9.906;2022-07-21T13:12:00;3.95;;;3.58;;
14892;SDS011;7538;53.626;9.906;2022-07-21T13:14:27;4.00;;;3.70;;
14892;SDS011;7538;53.626;9.906;2022-07-21T13:16:55;4.13;;;3.83;;
14892;SDS011;7538;53.626;9.906;2022-07-21T13:19:22;4.75;;;4.35;;
14892;SDS011;7538;53.626;9.906;2022-07-21T13:21:50;4.03;;;3.63;;
14892;SDS011;7538;53.626;9.906;2022-07-21T13:24:16;4.28;;;3.97;;
14892;SDS011;7538;53.626;9.906;2022-07-21T13:26:43;4.00;;;3.70;;
14892;SDS011;7538;53.626;9.906;2022-07-21T13:29:10;5.00;;;4.50;;
14892;SDS011;7538;53.626;9.906;2022-07-21T13:31:37;8.75;;;7.93;;
14892;SDS011;7538;53.626;9.906;2022-07-21T13:34:06;5.13;;;4.63;;
14892;SDS011;7538;53.626;9.906;2022-07-21T13:36:34;5.50;;;4.35;;
14892;SDS011;7538;53.626;9.906;2022-07-21T13:39:01;5.28;;;4.78;;
14892;SDS011;7538;53.626;9.906;2022-07-21T13:41:29;5.90;;;5.32;;
14892;SDS011;7538;53.626;9.906;2022-07-21T13:43:56;4.63;;;4.32;;
14892;SDS011;7538;53.626;9.906;2022-07-21T13:46:23;5.53;;;4.93;;
14892;SDS011;7538;53.626;9.906;2022-07-21T13:48:50;4.93;;;4.53;;
14892;SDS011;7538;53.626;9.906;2022-07-21T13:51:19;4.00;;;3.63;;
14892;SDS011;7538;53.626;9.906;2022-07-21T13:53:47;4.43;;;4.10;;
14892;SDS011;7538;53.626;9.906;2022-07-21T13:56:16;4.05;;;3.72;;
14892;SDS011;7538;53.626;9.906;2022-07-21T13:58:43;3.38;;;3.08;;
14892;SDS011;7538;53.626;9.906;2022-07-21T14:01:11;4.15;;;3.50;;
14892;SDS011;7538;53.626;9.906;2022-07-21T14:03:39;3.70;;;3.40;;
14892;SDS011;7538;53.626;9.906;2022-07-21T14:06:07;3.40;;;3.20;;
14892;SDS011;7538;53.626;9.906;2022-07-21T14:08:35;3.20;;;3.00;;
14892;SDS011;7538;53.626;9.906;2022-07-21T14:11:02;4.07;;;3.67;;
14892;SDS011;7538;53.626;9.906;2022-07-21T14:13:30;4.32;;;3.35;;
14892;SDS011;7538;53.626;9.906;2022-07-21T14:15:57;4.20;;;3.90;;
14892;SDS011;7538;53.626;9.906;2022-07-21T14:18:24;3.78;;;3.47;;
14892;SDS011;7538;53.626;9.906;2022-07-21T14:20:51;4.20;;;3.75;;
14892;SDS011;7538;53.626;9.906;2022-07-21T14:23:18;3.42;;;3.22;;
14892;SDS011;7538;53.626;9.906;2022-07-21T14:25:47;4.00;;;3.60;;
14892;SDS011;7538;53.626;9.906;2022-07-21T14:28:14;3.78;;;3.17;;
14892;SDS011;7538;53.626;9.906;2022-07-21T14:30:41;3.80;;;3.35;;
14892;SDS011;7538;53.626;9.906;2022-07-21T14:33:08;3.85;;;3.55;;
14892;SDS011;7538;53.626;9.906;2022-07-21T14:35:36;4.78;;;3.45;;
14892;SDS011;7538;53.626;9.906;2022-07-21T14:38:03;3.75;;;3.47;;
14892;SDS011;7538;53.626;9.906;2022-07-21T14:40:30;4.10;;;3.60;;
14892;SDS011;7538;53.626;9.906;2022-07-21T14:42:59;3.85;;;3.47;;
14892;SDS011;7538;53.626;9.906;2022-07-21T14:45:26;3.50;;;3.20;;
14892;SDS011;7538;53.626;9.906;2022-07-21T14:47:54;4.63;;;3.72;;
14892;SDS011;7538;53.626;9.906;2022-07-21T14:50:23;3.70;;;3.40;;
14892;SDS011;7538;53.626;9.906;2022-07-21T14:52:51;3.88;;;3.40;;
14892;SDS011;7538;53.626;9.906;2022-07-21T14:55:18;4.40;;;3.90;;
14892;SDS011;7538;53.626;9.906;2022-07-21T14:57:47;3.85;;;3.40;;
14892;SDS011;7538;53.626;9.906;2022-07-21T15:00:16;3.42;;;3.10;;
14892;SDS011;7538;53.626;9.906;2022-07-21T15:02:43;3.33;;;3.13;;
14892;SDS011;7538;53.626;9.906;2022-07-21T15:05:10;3.53;;;3.22;;
14892;SDS011;7538;53.626;9.906;2022-07-21T15:07:37;3.60;;;3.30;;
14892;SDS011;7538;53.626;9.906;2022-07-21T15:10:04;4.85;;;4.40;;